To NAV CANADA Home Page Login to a new session Search on AWWS site Disclaimer Vers la page française équivalente Tips FAQ What's new on the site To the Forecasts and Observations / NOTAM section To "File a Flight Plan" website Publications and other links Update of the User's profile FIC Telephone Numbers My Weather Data Folder Route Weather Data Regional Weather Data Local Weather Data To the Forecasts and Observations / NOTAM section
Request Generated 04/24/2019 at 16:00:22 UTC . Weather information available at that time is displayed.

METAR/TAF

VICTORIA INTL/BC    

METAR CYYJ 241500Z 27003KT 30SM BKN042 BKN058 08/03 A3035 RMK SC6SC1 SLP279=
METAR CYYJ 241400Z 24004KT 30SM BKN040 BKN057 07/05 A3033 RMK SC5SC1 SLP271=
METAR CYYJ 241300Z 32002KT 30SM BKN041 BKN058 07/04 A3030 RMK SC6SC1 SLP263=

TAF CYYJ 241138Z 2412/2512 27005KT P6SM SCT050 TEMPO 2412/2418 FEW020
BKN050
FM241800 14005KT P6SM FEW040
BECMG 2420/2422 08006KT
FM250300 28006KT P6SM SCT250
RMK NXT FCST BY 241800Z=
Your time UTC time
Weather data provided by Environment Canada and NAV CANADA